Time;durP1;ratioP1;P1;durP2;ratioP2;P2;SDS_P1;SDS_P2;PMS_P1;PMS_P2;Temp;Humidity;BMP_temperature;BMP_pressure;BME280_temperature;BME280_humidity;BME280_pressure;Samples;Min_cycle;Max_cycle;Signal;HPM_P1;HPM_P2
2022/02/12 00:00:34;;;;;;;13.43;3.50;;;0.50;99.90;;;;;;5015962;28;20186;-93
2022/02/12 00:03:00;;;;;;;16.20;3.87;;;0.50;99.90;;;;;;5016399;28;20181;-93
2022/02/12 00:05:26;;;;;;;11.93;3.13;;;0.40;99.90;;;;;;5014975;28;20227;-92
2022/02/12 00:07:56;;;;;;;12.83;3.43;;;0.40;99.90;;;;;;5015784;28;20629;-93
2022/02/12 00:10:24;;;;;;;10.57;2.70;;;0.30;99.90;;;;;;5015502;28;20191;-92
2022/02/12 00:12:49;;;;;;;15.60;3.13;;;0.30;99.90;;;;;;5015812;28;20223;-93
2022/02/12 00:15:15;;;;;;;7.57;2.30;;;0.30;99.90;;;;;;5015206;28;20233;-93
2022/02/12 00:17:45;;;;;;;9.90;2.60;;;0.30;99.90;;;;;;5015554;28;20213;-92
2022/02/12 00:20:12;;;;;;;8.30;3.00;;;0.30;99.90;;;;;;5015863;28;20175;-92
2022/02/12 00:22:39;;;;;;;8.33;3.00;;;0.30;99.90;;;;;;5015332;28;20277;-91
2022/02/12 00:25:06;;;;;;;11.83;3.00;;;0.30;99.90;;;;;;5015658;28;20176;-93
2022/02/12 00:27:32;;;;;;;8.73;3.03;;;0.30;99.90;;;;;;5015813;28;20233;-93
2022/02/12 00:29:58;;;;;;;10.83;3.33;;;0.30;99.90;;;;;;5014792;28;20177;-92
2022/02/12 00:32:25;;;;;;;14.67;3.73;;;0.30;99.90;;;;;;5013863;28;20530;-91
2022/02/12 00:34:50;;;;;;;12.57;3.10;;;0.30;99.90;;;;;;5014833;28;20551;-92
2022/02/12 00:37:17;;;;;;;12.47;3.60;;;0.30;99.90;;;;;;5014560;28;20191;-92
2022/02/12 00:39:42;;;;;;;14.27;3.40;;;0.30;99.90;;;;;;5014719;28;20184;-93
2022/02/12 00:42:08;;;;;;;13.70;3.80;;;0.30;99.90;;;;;;5014799;28;20434;-92
2022/02/12 00:44:34;;;;;;;13.97;3.90;;;0.20;99.90;;;;;;5014619;28;20180;-93
2022/02/12 00:47:00;;;;;;;8.33;3.00;;;0.30;99.90;;;;;;5015732;28;20179;-93
2022/02/12 00:49:26;;;;;;;8.43;3.27;;;0.30;99.90;;;;;;5014175;28;20217;-92
2022/02/12 00:51:52;;;;;;;14.93;3.43;;;0.20;99.90;;;;;;5014713;28;20234;-92
2022/02/12 00:54:18;;;;;;;10.90;3.67;;;0.20;99.90;;;;;;5014341;28;20176;-93
2022/02/12 00:56:45;;;;;;;14.43;3.43;;;0.30;99.90;;;;;;5014675;28;20198;-92
2022/02/12 00:59:10;;;;;;;13.70;3.47;;;0.30;99.90;;;;;;5014347;28;20644;-92
2022/02/12 01:01:36;;;;;;;15.43;3.63;;;0.30;99.90;;;;;;5014682;28;20202;-92
2022/02/12 01:04:03;;;;;;;19.13;3.73;;;0.30;99.90;;;;;;5014428;28;20630;-92
2022/02/12 01:06:30;;;;;;;10.47;3.30;;;0.30;99.90;;;;;;5014128;28;20227;-92
2022/02/12 01:08:56;;;;;;;16.83;3.40;;;0.30;99.90;;;;;;5014698;28;20189;-92
2022/02/12 01:11:22;;;;;;;9.80;3.50;;;0.30;99.90;;;;;;5014180;28;20202;-95
2022/02/12 01:13:48;;;;;;;8.87;3.03;;;0.20;99.90;;;;;;5014434;28;20252;-94
2022/02/12 01:16:14;;;;;;;16.47;3.87;;;0.20;99.90;;;;;;5014232;28;20187;-95
2022/02/12 01:18:39;;;;;;;9.93;3.63;;;0.30;99.90;;;;;;5013860;28;20185;-94
2022/02/12 01:21:05;;;;;;;14.20;3.63;;;0.20;99.90;;;;;;5014658;28;20590;-95
2022/02/12 01:23:31;;;;;;;12.97;3.70;;;0.20;99.90;;;;;;5014771;28;20190;-95
2022/02/12 01:25:57;;;;;;;10.77;3.50;;;0.20;99.90;;;;;;5014566;28;20248;-93
2022/02/12 01:28:23;;;;;;;10.00;3.73;;;0.20;99.90;;;;;;5014256;28;20270;-94
2022/02/12 01:30:49;;;;;;;11.50;3.40;;;0.20;99.90;;;;;;5014308;28;20188;-94
2022/02/12 01:33:15;;;;;;;13.97;3.57;;;0.20;99.90;;;;;;5014298;28;20188;-94
2022/02/12 01:35:42;;;;;;;13.67;3.73;;;0.20;99.90;;;;;;5014070;28;20197;-95
2022/02/12 01:38:08;;;;;;;12.07;3.53;;;0.20;99.90;;;;;;5013996;28;20271;-96
2022/02/12 01:40:34;;;;;;;13.63;3.83;;;0.10;99.90;;;;;;5014014;28;20225;-94
2022/02/12 01:43:02;;;;;;;8.03;3.27;;;0.20;99.90;;;;;;5013686;28;20175;-94
2022/02/12 01:45:31;;;;;;;14.23;3.43;;;0.10;99.90;;;;;;5014121;28;20180;-94
2022/02/12 01:47:57;;;;;;;11.50;3.47;;;0.10;99.90;;;;;;5013879;28;20191;-94
2022/02/12 01:50:24;;;;;;;8.73;3.43;;;0.10;99.90;;;;;;5014349;28;20588;-94
2022/02/12 01:52:51;;;;;;;11.53;3.57;;;0.10;99.90;;;;;;5013527;28;20214;-92
2022/02/12 01:55:18;;;;;;;17.83;4.30;;;0.10;99.90;;;;;;5013553;28;20187;-93
2022/02/12 01:57:44;;;;;;;11.10;3.40;;;0.10;99.90;;;;;;5013873;28;20233;-93
2022/02/12 02:00:13;;;;;;;15.53;3.33;;;0.00;99.90;;;;;;5013904;28;20217;-92
2022/02/12 02:02:39;;;;;;;16.50;3.63;;;0.00;99.90;;;;;;5013332;28;20190;-93
2022/02/12 02:05:15;;;;;;;10.77;3.77;;;0.00;99.90;;;;;;5013668;28;20223;-92
2022/02/12 02:07:42;;;;;;;8.50;2.80;;;0.00;99.90;;;;;;4994041;28;20267;-92
2022/02/12 02:10:09;;;;;;;12.90;4.73;;;0.00;99.90;;;;;;4995453;28;20183;-92
2022/02/12 02:12:35;;;;;;;11.93;3.53;;;-0.10;99.90;;;;;;5013771;28;20217;-93
2022/02/12 02:15:06;;;;;;;13.63;4.03;;;-0.10;99.90;;;;;;5013182;28;20270;-93
2022/02/12 02:17:32;;;;;;;10.60;3.90;;;-0.10;99.90;;;;;;5013718;28;20193;-94
2022/02/12 02:19:57;;;;;;;15.57;4.10;;;-0.10;99.90;;;;;;5014052;28;20609;-93
2022/02/12 02:22:29;;;;;;;12.20;3.30;;;-0.10;99.90;;;;;;5013440;28;20183;-93
2022/02/12 02:24:55;;;;;;;15.20;4.27;;;-0.10;99.90;;;;;;5013605;28;20189;-94
2022/02/12 02:27:21;;;;;;;13.90;3.30;;;-0.10;99.90;;;;;;5014396;28;20535;-93
2022/02/12 02:29:47;;;;;;;13.53;3.27;;;-0.10;99.90;;;;;;5013419;28;20194;-93
2022/02/12 02:32:14;;;;;;;10.87;2.90;;;-0.10;99.90;;;;;;5013810;28;20262;-93
2022/02/12 02:34:52;;;;;;;12.33;2.83;;;-0.10;99.90;;;;;;5014394;28;20262;-95
2022/02/12 02:37:19;;;;;;;13.13;3.00;;;-0.10;99.90;;;;;;5013754;28;20182;-93
2022/02/12 02:39:45;;;;;;;11.97;3.20;;;-0.10;99.90;;;;;;5013685;28;20190;-93
2022/02/12 02:42:10;;;;;;;16.13;3.53;;;-0.10;99.90;;;;;;5013799;28;20179;-92
2022/02/12 02:44:36;;;;;;;10.73;3.00;;;-0.20;99.90;;;;;;5014298;28;20213;-92
2022/02/12 02:47:32;;;;;;;12.33;3.63;;;-0.30;99.90;;;;;;5013327;28;20618;-94
2022/02/12 02:49:48;;;;;;;11.20;3.10;;;-0.40;99.90;;;;;;5014856;28;20214;-93
2022/02/12 02:55:59;;;;;;;14.67;3.70;;;-0.40;99.90;;;;;;5016066;28;20170;-93
2022/02/12 02:57:49;;;;;;;9.27;2.97;;;-0.40;99.90;;;;;;5017933;28;20187;-93
2022/02/12 03:00:15;;;;;;;8.70;3.50;;;-0.40;99.90;;;;;;5015947;28;20184;-93
2022/02/12 03:02:41;;;;;;;10.20;3.03;;;-0.40;99.90;;;;;;5016678;28;20198;-93
2022/02/12 03:05:07;;;;;;;8.40;2.93;;;-0.40;99.90;;;;;;5016488;28;20233;-93
2022/02/12 03:07:33;;;;;;;14.90;3.43;;;-0.40;99.90;;;;;;5016420;28;20183;-92
2022/02/12 03:10:01;;;;;;;7.63;3.50;;;-0.40;99.90;;;;;;5016539;28;20222;-94
2022/02/12 03:12:27;;;;;;;13.03;3.10;;;-0.50;99.90;;;;;;5016164;28;20685;-93
2022/02/12 03:14:52;;;;;;;10.63;3.60;;;-0.50;99.90;;;;;;5016655;28;20179;-94
2022/02/12 03:17:18;;;;;;;13.07;3.50;;;-0.50;99.90;;;;;;5016602;28;20183;-93
2022/02/12 03:19:44;;;;;;;17.33;3.90;;;-0.50;99.90;;;;;;5016297;28;20194;-94
2022/02/12 03:22:10;;;;;;;16.03;3.77;;;-0.50;99.90;;;;;;5016224;28;20172;-93
2022/02/12 03:24:36;;;;;;;13.03;3.37;;;-0.50;99.90;;;;;;5016131;28;20508;-94
2022/02/12 03:27:02;;;;;;;12.70;3.87;;;-0.50;99.90;;;;;;5016273;28;20224;-93
2022/02/12 03:29:29;;;;;;;17.43;3.50;;;-0.50;99.90;;;;;;5016120;28;20641;-92
2022/02/12 03:31:54;;;;;;;8.33;2.80;;;-0.50;99.90;;;;;;5015775;28;20217;-93
2022/02/12 03:34:20;;;;;;;12.53;2.60;;;-0.50;99.90;;;;;;5015781;28;20180;-93
2022/02/12 03:36:46;;;;;;;19.93;3.40;;;-0.50;99.90;;;;;;5015850;28;20191;-93
2022/02/12 03:39:14;;;;;;;13.27;3.70;;;-0.50;99.90;;;;;;5015799;28;20187;-93
2022/02/12 03:41:39;;;;;;;15.47;3.43;;;-0.50;99.90;;;;;;5016084;28;20183;-93
2022/02/12 03:44:05;;;;;;;8.30;2.93;;;-0.50;99.90;;;;;;5015776;28;20179;-93
2022/02/12 03:46:33;;;;;;;9.20;3.00;;;-0.50;99.90;;;;;;5015495;28;20234;-94
2022/02/12 03:48:59;;;;;;;14.83;3.47;;;-0.60;99.90;;;;;;5016203;28;20556;-95
2022/02/12 03:51:24;;;;;;;16.03;3.10;;;-0.60;99.90;;;;;;5015405;28;20207;-94
2022/02/12 03:53:50;;;;;;;8.77;3.40;;;-0.60;99.90;;;;;;5016335;28;20187;-93
2022/02/12 03:56:16;;;;;;;11.60;3.17;;;-0.60;99.90;;;;;;5015889;28;20232;-93
2022/02/12 03:58:42;;;;;;;16.17;3.30;;;-0.70;99.90;;;;;;5015959;28;20194;-94
2022/02/12 04:01:07;;;;;;;14.33;2.97;;;-0.60;99.90;;;;;;5016001;28;20194;-93
2022/02/12 04:03:33;;;;;;;16.73;3.30;;;-0.60;99.90;;;;;;5015458;28;20175;-94
2022/02/12 04:05:59;;;;;;;12.53;3.10;;;-0.60;99.90;;;;;;5015687;28;20318;-94
2022/02/12 04:08:25;;;;;;;10.23;2.80;;;-0.60;99.90;;;;;;5015468;28;20221;-94
2022/02/12 04:10:51;;;;;;;15.47;3.27;;;-0.60;99.90;;;;;;5015766;28;20191;-93
2022/02/12 04:13:19;;;;;;;9.90;2.57;;;-0.60;99.90;;;;;;5015655;28;20183;-93
2022/02/12 04:15:45;;;;;;;12.93;3.23;;;-0.60;99.90;;;;;;5015747;28;20179;-94
2022/02/12 04:18:13;;;;;;;10.17;2.70;;;-0.60;99.90;;;;;;5015133;28;20179;-94
2022/02/12 04:20:39;;;;;;;7.70;2.50;;;-0.60;99.90;;;;;;5015411;28;20266;-93
2022/02/12 04:23:06;;;;;;;18.73;3.13;;;-0.60;99.90;;;;;;4998808;28;20175;-93
2022/02/12 04:25:31;;;;;;;12.80;3.10;;;-0.60;99.90;;;;;;5015586;28;20183;-94
2022/02/12 04:27:57;;;;;;;13.70;3.30;;;-0.60;99.90;;;;;;5016477;28;20233;-93
2022/02/12 04:30:24;;;;;;;13.50;2.60;;;-0.60;99.90;;;;;;5016685;28;20179;-96
2022/02/12 04:32:50;;;;;;;13.93;2.67;;;-0.70;99.90;;;;;;5017135;28;20211;-95
2022/02/12 04:35:16;;;;;;;6.90;2.60;;;-0.60;99.90;;;;;;5016697;28;20194;-95
2022/02/12 04:37:47;;;;;;;9.67;2.47;;;-0.60;99.90;;;;;;5018453;28;20190;-96
2022/02/12 04:40:16;;;;;;;12.33;2.97;;;-0.60;99.90;;;;;;5024769;28;20220;-96
2022/02/12 04:42:45;;;;;;;9.30;2.50;;;-0.60;99.90;;;;;;5007819;28;20191;-96
2022/02/12 04:45:11;;;;;;;11.97;2.93;;;-0.60;99.90;;;;;;5007501;28;20187;-96
2022/02/12 04:47:43;;;;;;;12.27;3.00;;;-0.70;99.90;;;;;;5024322;28;20179;-96
2022/02/12 04:50:10;;;;;;;12.77;2.67;;;-0.70;99.90;;;;;;5026289;28;20183;-96
2022/02/12 04:52:52;;;;;;;16.73;2.63;;;-0.60;99.90;;;;;;5024403;28;20218;-96
2022/02/12 04:55:26;;;;;;;13.03;3.80;;;-0.60;99.90;;;;;;5013518;28;20266;-96
2022/02/12 04:57:56;;;;;;;8.50;2.80;;;-0.60;99.90;;;;;;4995809;28;20186;-96
2022/02/12 05:00:42;;;;;;;11.87;2.87;;;-0.60;99.90;;;;;;5013032;28;20218;-96
2022/02/12 05:03:17;;;;;;;16.43;3.20;;;-0.60;99.90;;;;;;5028767;28;20393;-96
2022/02/12 05:05:43;;;;;;;8.47;2.90;;;-0.60;99.90;;;;;;5004140;28;20231;-95
2022/02/12 05:08:09;;;;;;;8.80;2.93;;;-0.60;99.90;;;;;;5018743;28;20218;-96
2022/02/12 05:10:35;;;;;;;8.17;2.47;;;-0.60;99.90;;;;;;5019290;28;20179;-96
2022/02/12 05:13:01;;;;;;;15.00;2.77;;;-0.60;99.90;;;;;;5019700;28;20222;-96
2022/02/12 05:15:27;;;;;;;11.20;2.73;;;-0.60;99.90;;;;;;5020647;28;20175;-95
2022/02/12 05:17:53;;;;;;;10.97;2.73;;;-0.70;99.90;;;;;;5020591;28;20214;-96
2022/02/12 05:20:20;;;;;;;10.67;2.70;;;-0.70;99.90;;;;;;5019518;28;20186;-96
2022/02/12 05:22:46;;;;;;;15.90;2.90;;;-0.70;99.90;;;;;;5019777;28;20286;-96
2022/02/12 05:25:11;;;;;;;13.83;2.87;;;-0.70;99.90;;;;;;5019246;28;20207;-95
2022/02/12 05:27:37;;;;;;;9.53;2.53;;;-0.70;99.90;;;;;;5019659;28;20183;-95
2022/02/12 05:30:04;;;;;;;18.50;3.00;;;-0.70;99.90;;;;;;5018621;28;20186;-96
2022/02/12 05:32:30;;;;;;;10.00;2.93;;;-0.70;99.90;;;;;;5020190;28;20230;-96
2022/02/12 05:35:05;;;;;;;7.83;2.43;;;-0.70;99.90;;;;;;5022569;28;20203;-96
2022/02/12 05:37:39;;;;;;;14.43;3.10;;;-0.70;99.90;;;;;;5033184;28;20212;-96
2022/02/12 05:45:30;;;;;;;7.80;2.70;;;-0.70;99.90;;;;;;5028736;28;20230;-96
2022/02/12 05:48:19;;;;;;;6.97;2.13;;;-0.70;99.90;;;;;;5030011;28;20180;-96
2022/02/12 05:51:03;;;;;;;8.00;2.20;;;-0.60;99.90;;;;;;5028446;28;20182;-96
2022/02/12 05:53:33;;;;;;;14.17;2.90;;;-0.60;99.90;;;;;;5025850;28;20256;-96
2022/02/12 05:56:05;;;;;;;11.27;2.30;;;-0.60;99.90;;;;;;5029433;28;20176;-96
2022/02/12 05:58:34;;;;;;;9.07;2.40;;;-0.60;99.90;;;;;;5027428;28;20202;-96
2022/02/12 06:01:10;;;;;;;13.90;2.10;;;-0.70;99.90;;;;;;5026747;28;20190;-96
2022/02/12 06:03:38;;;;;;;12.00;2.13;;;-0.70;99.90;;;;;;5009996;28;20202;-96
2022/02/12 06:06:05;;;;;;;13.60;2.63;;;-0.70;99.90;;;;;;5026023;28;20198;-96
2022/02/12 06:08:52;;;;;;;11.37;2.20;;;-0.70;99.90;;;;;;5008240;28;20199;-96
2022/02/12 06:11:38;;;;;;;12.60;2.40;;;-0.70;99.90;;;;;;5025750;28;20214;-96
2022/02/12 06:14:10;;;;;;;9.97;1.80;;;-0.70;99.90;;;;;;5030101;28;20183;-96
2022/02/12 06:17:07;;;;;;;8.33;2.30;;;-0.80;99.90;;;;;;5030889;28;20186;-96
2022/02/12 06:19:58;;;;;;;13.33;2.00;;;-0.80;99.90;;;;;;5015264;28;20194;-96
2022/02/12 06:22:41;;;;;;;10.53;2.40;;;-0.70;99.90;;;;;;5030911;28;20215;-96
2022/02/12 06:25:16;;;;;;;12.30;2.20;;;-0.70;99.90;;;;;;5031397;28;20174;-96
2022/02/12 06:28:18;;;;;;;11.47;2.03;;;-0.70;99.90;;;;;;5070671;22;20254;-96
2022/02/12 06:30:48;;;;;;;7.20;2.03;;;-0.70;99.90;;;;;;4979281;28;20204;-96
2022/02/12 06:33:16;;;;;;;10.97;1.93;;;-0.70;99.90;;;;;;5000577;28;20201;-96
2022/02/12 06:35:42;;;;;;;8.00;2.13;;;-0.70;99.90;;;;;;5039014;22;20306;-96
2022/02/12 06:38:08;;;;;;;7.57;2.00;;;-0.70;99.90;;;;;;5028521;28;20183;-96
2022/02/12 06:40:35;;;;;;;12.90;2.10;;;-0.70;99.90;;;;;;5030025;28;20183;-96
2022/02/12 06:43:03;;;;;;;8.33;2.40;;;-0.70;99.90;;;;;;5030972;28;20202;-96
2022/02/12 06:45:31;;;;;;;8.23;1.90;;;-0.70;99.90;;;;;;5016983;28;20178;-96
2022/02/12 06:47:58;;;;;;;8.83;2.30;;;-0.80;99.90;;;;;;5013569;28;20642;-96
2022/02/12 06:50:35;;;;;;;9.17;2.17;;;-0.70;99.90;;;;;;5016087;28;20164;-96
2022/02/12 06:53:10;;;;;;;11.03;2.40;;;-0.70;99.90;;;;;;5029347;28;20230;-96
2022/02/12 06:55:39;;;;;;;7.07;1.87;;;-0.70;99.90;;;;;;5030724;28;20229;-96
2022/02/12 06:58:07;;;;;;;8.33;2.00;;;-0.70;99.90;;;;;;5033677;28;20183;-96
2022/02/12 07:01:06;;;;;;;7.40;2.13;;;-0.70;99.90;;;;;;5117124;22;20234;-96
2022/02/12 07:03:36;;;;;;;12.53;2.40;;;-0.70;99.90;;;;;;5024548;28;20255;-96
2022/02/12 07:06:10;;;;;;;9.70;2.20;;;-0.70;99.90;;;;;;5033600;28;20194;-96
2022/02/12 07:08:40;;;;;;;6.23;1.87;;;-0.70;99.90;;;;;;5033545;28;20183;-96
2022/02/12 07:11:08;;;;;;;11.23;1.77;;;-0.70;99.90;;;;;;5031328;28;20183;-95
2022/02/12 07:14:04;;;;;;;5.93;2.20;;;-0.70;99.90;;;;;;5023127;28;20182;-96
2022/02/12 07:16:46;;;;;;;5.87;2.43;;;-0.60;99.90;;;;;;5026843;28;20186;-96
2022/02/12 07:19:20;;;;;;;8.23;2.23;;;-0.60;99.90;;;;;;5025462;28;20187;-96
2022/02/12 07:22:02;;;;;;;7.10;2.10;;;-0.60;99.90;;;;;;5027296;28;20263;-96
2022/02/12 07:24:27;;;;;;;6.93;1.97;;;-0.60;99.90;;;;;;5036065;22;20263;-96
2022/02/12 07:26:53;;;;;;;8.70;2.70;;;-0.50;99.90;;;;;;5004054;28;20534;-94
2022/02/12 07:29:21;;;;;;;12.33;2.57;;;-0.50;99.90;;;;;;4994087;28;20176;-95
2022/02/12 07:31:46;;;;;;;8.80;2.50;;;-0.50;99.90;;;;;;4994404;28;20247;-95
2022/02/12 07:34:15;;;;;;;9.43;2.13;;;-0.50;99.90;;;;;;4997813;28;20599;-95
2022/02/12 07:36:43;;;;;;;10.17;2.67;;;-0.40;99.90;;;;;;4992378;28;20215;-96
2022/02/12 07:39:10;;;;;;;5.67;2.20;;;-0.40;99.90;;;;;;5005739;28;20188;-95
2022/02/12 07:41:43;;;;;;;7.03;2.10;;;-0.30;99.90;;;;;;5006358;28;20202;-96
2022/02/12 07:44:12;;;;;;;12.97;2.40;;;-0.20;99.90;;;;;;5003539;28;20235;-95
2022/02/12 07:46:38;;;;;;;12.57;2.80;;;-0.20;99.90;;;;;;5003421;28;20183;-96
2022/02/12 07:49:05;;;;;;;11.73;2.20;;;-0.20;99.90;;;;;;5005427;28;20503;-96
2022/02/12 07:51:40;;;;;;;12.77;2.40;;;-0.10;99.90;;;;;;5006361;28;20215;-96
2022/02/12 07:54:06;;;;;;;11.47;2.47;;;-0.10;99.90;;;;;;4999401;28;20187;-96
2022/02/12 07:56:33;;;;;;;4.97;2.13;;;0.00;99.90;;;;;;5000586;28;20188;-96
2022/02/12 07:58:59;;;;;;;11.23;2.10;;;0.00;99.90;;;;;;4984995;28;20196;-96
2022/02/12 08:01:30;;;;;;;5.57;1.60;;;0.10;99.90;;;;;;5000214;28;20188;-96
2022/02/12 08:03:57;;;;;;;9.87;2.23;;;0.20;99.90;;;;;;4999363;28;20196;-96
2022/02/12 08:09:19;;;;;;;9.03;2.23;;;0.20;99.90;;;;;;5000008;28;20622;-96
2022/02/12 08:11:53;;;;;;;12.53;1.93;;;0.30;99.90;;;;;;4999570;28;20218;-96
2022/02/12 08:14:28;;;;;;;12.33;2.10;;;0.40;99.90;;;;;;4991879;28;20186;-96
2022/02/12 08:16:54;;;;;;;13.23;2.20;;;0.40;99.90;;;;;;5000624;28;20271;-96
2022/02/12 08:19:20;;;;;;;4.63;1.80;;;0.50;99.90;;;;;;5000240;28;20180;-96
2022/02/12 08:22:06;;;;;;;8.63;1.60;;;0.50;99.90;;;;;;5000796;28;20198;-96
2022/02/12 08:24:32;;;;;;;10.93;1.97;;;0.60;99.90;;;;;;4997175;28;20521;-96
2022/02/12 08:26:59;;;;;;;9.57;1.67;;;0.60;99.90;;;;;;4995585;28;20270;-94
2022/02/12 08:29:28;;;;;;;7.63;2.13;;;0.70;99.90;;;;;;4979779;28;20180;-95
2022/02/12 08:31:56;;;;;;;11.40;1.93;;;0.80;99.90;;;;;;4979634;28;20615;-95
2022/02/12 08:34:23;;;;;;;10.50;1.87;;;0.80;99.90;;;;;;4995154;28;20183;-94
2022/02/12 08:36:50;;;;;;;16.43;1.80;;;0.90;99.90;;;;;;4995349;28;20184;-95
2022/02/12 08:39:16;;;;;;;6.90;1.97;;;1.00;99.90;;;;;;4994672;28;20183;-96
2022/02/12 08:41:42;;;;;;;9.50;1.80;;;1.00;99.90;;;;;;4991498;28;20212;-95
2022/02/12 08:44:07;;;;;;;9.60;1.90;;;1.00;99.90;;;;;;4987349;28;20184;-95
2022/02/12 08:46:33;;;;;;;5.73;1.70;;;1.10;99.90;;;;;;4987182;28;20205;-95
2022/02/12 08:48:59;;;;;;;4.83;1.57;;;1.10;99.90;;;;;;4995939;28;20182;-95
2022/02/12 08:51:31;;;;;;;10.83;1.70;;;1.10;99.90;;;;;;4995547;28;20212;-96
2022/02/12 08:53:57;;;;;;;8.13;2.27;;;1.20;99.90;;;;;;4985933;28;20200;-95
2022/02/12 08:56:24;;;;;;;9.33;1.87;;;1.30;99.90;;;;;;4997678;28;20275;-96
2022/02/12 08:58:50;;;;;;;9.23;2.87;;;1.40;99.90;;;;;;4998921;28;20192;-96
2022/02/12 09:01:16;;;;;;;11.27;2.60;;;1.50;99.90;;;;;;4995974;28;20184;-95
2022/02/12 09:03:42;;;;;;;6.37;1.73;;;1.50;99.90;;;;;;4995356;28;20186;-95
2022/02/12 09:06:09;;;;;;;5.57;1.87;;;1.50;99.90;;;;;;4994454;28;20184;-95
2022/02/12 09:08:35;;;;;;;8.87;1.90;;;1.50;99.90;;;;;;4994594;28;20190;-95
2022/02/12 09:11:01;;;;;;;8.70;2.40;;;1.60;99.90;;;;;;4994686;28;20188;-95
2022/02/12 09:13:27;;;;;;;9.70;2.20;;;1.60;99.90;;;;;;4988956;28;20238;-94
2022/02/12 09:15:55;;;;;;;9.33;1.90;;;1.60;99.90;;;;;;4994218;28;20522;-94
2022/02/12 09:18:21;;;;;;;5.50;1.70;;;1.70;99.90;;;;;;4994315;28;20298;-95
2022/02/12 09:20:47;;;;;;;4.73;1.60;;;1.80;99.90;;;;;;4994393;28;20199;-94
2022/02/12 09:23:12;;;;;;;5.50;1.63;;;1.80;99.90;;;;;;4994179;28;20175;-95
2022/02/12 09:25:38;;;;;;;9.20;2.57;;;1.90;99.90;;;;;;4994245;28;20236;-94
2022/02/12 09:28:04;;;;;;;9.83;2.00;;;1.90;99.90;;;;;;4994433;28;20187;-95
2022/02/12 09:30:30;;;;;;;9.37;2.00;;;1.90;99.90;;;;;;4994604;28;20183;-95
2022/02/12 09:32:57;;;;;;;10.17;2.03;;;2.00;99.90;;;;;;4994333;28;20554;-94
2022/02/12 09:35:24;;;;;;;6.77;1.60;;;2.10;99.90;;;;;;4977649;28;20238;-95
2022/02/12 09:37:50;;;;;;;8.37;1.80;;;2.10;99.90;;;;;;4994566;28;20190;-95
2022/02/12 09:40:16;;;;;;;7.70;1.70;;;2.20;99.90;;;;;;4994229;28;20237;-95
2022/02/12 09:42:42;;;;;;;9.33;1.77;;;2.20;99.90;;;;;;4993831;28;20187;-95
2022/02/12 09:45:08;;;;;;;13.63;1.90;;;2.30;99.90;;;;;;4993818;28;20230;-94
2022/02/12 09:47:50;;;;;;;6.20;2.00;;;2.30;99.90;;;;;;4995731;28;20265;-94
2022/02/12 09:50:18;;;;;;;3.67;1.67;;;2.40;99.90;;;;;;4994550;28;20184;-94
2022/02/12 09:52:52;;;;;;;5.77;1.20;;;2.50;99.90;;;;;;4994200;28;20212;-94
2022/02/12 09:55:19;;;;;;;7.63;1.50;;;2.60;99.90;;;;;;4994436;28;20267;-93
2022/02/12 09:57:46;;;;;;;9.53;1.90;;;2.70;99.90;;;;;;4994236;28;20594;-93
2022/02/12 10:00:14;;;;;;;9.50;1.90;;;2.80;99.90;;;;;;4994681;28;20230;-94
2022/02/12 10:02:40;;;;;;;5.57;1.27;;;2.90;99.90;;;;;;4994491;28;20192;-94
2022/02/12 10:05:38;;;;;;;7.40;1.90;;;2.90;99.90;;;;;;4997734;28;20208;-94
2022/02/12 10:08:07;;;;;;;6.97;1.63;;;2.90;99.90;;;;;;4967832;28;20203;-94
2022/02/12 10:10:36;;;;;;;7.57;1.60;;;3.00;99.90;;;;;;4991703;28;20644;-93
2022/02/12 10:13:14;;;;;;;7.53;1.57;;;3.00;99.90;;;;;;4994482;28;20228;-94
2022/02/12 10:15:42;;;;;;;7.43;1.53;;;3.10;99.90;;;;;;5000433;28;20184;-95
2022/02/12 10:18:09;;;;;;;8.00;1.50;;;3.20;99.90;;;;;;4997761;28;20268;-94
2022/02/12 10:20:37;;;;;;;6.93;1.23;;;3.10;99.90;;;;;;4996730;28;20214;-94
2022/02/12 10:23:16;;;;;;;7.90;1.93;;;3.30;99.90;;;;;;4997659;28;20176;-92
2022/02/12 10:26:07;;;;;;;10.17;1.97;;;3.40;99.90;;;;;;4995094;28;20700;-95
2022/02/12 10:28:38;;;;;;;5.00;1.37;;;3.40;99.90;;;;;;4997811;28;20180;-95
2022/02/12 10:31:04;;;;;;;9.57;1.60;;;3.40;99.90;;;;;;4991887;28;20215;-94
2022/02/12 10:33:41;;;;;;;5.83;1.70;;;3.50;99.90;;;;;;4998118;28;20207;-95
2022/02/12 10:36:06;;;;;;;9.70;1.97;;;3.50;99.90;;;;;;4997650;28;20257;-95
2022/02/12 10:38:36;;;;;;;8.23;1.87;;;3.60;99.90;;;;;;4997305;28;20665;-95
2022/02/12 10:41:07;;;;;;;4.50;1.33;;;3.70;99.90;;;;;;4986616;28;20623;-94
2022/02/12 10:43:34;;;;;;;11.17;1.97;;;3.80;99.90;;;;;;4996376;28;20283;-96
2022/02/12 10:46:02;;;;;;;6.40;1.50;;;3.90;99.90;;;;;;4997734;28;20180;-95
2022/02/12 10:48:32;;;;;;;10.10;1.80;;;3.90;99.90;;;;;;4997088;28;20176;-95
2022/02/12 10:51:15;;;;;;;10.17;2.03;;;4.00;99.90;;;;;;4997530;28;20561;-96
2022/02/12 10:53:59;;;;;;;7.20;2.10;;;4.00;99.90;;;;;;4995563;28;20184;-94
2022/02/12 10:56:46;;;;;;;9.83;1.90;;;3.90;99.90;;;;;;4996992;28;20176;-95
2022/02/12 10:59:13;;;;;;;5.93;1.70;;;4.00;99.90;;;;;;4998107;28;20618;-96
2022/02/12 11:01:40;;;;;;;5.57;1.60;;;4.00;99.90;;;;;;4997556;28;20192;-96
2022/02/12 11:04:07;;;;;;;4.93;1.50;;;4.20;99.90;;;;;;4997693;28;20184;-95
2022/02/12 11:06:35;;;;;;;6.03;1.70;;;4.30;99.90;;;;;;4998338;28;20199;-95
2022/02/12 11:09:02;;;;;;;5.67;1.57;;;4.30;99.90;;;;;;4996494;28;20213;-95
2022/02/12 11:11:30;;;;;;;7.63;1.90;;;4.30;99.90;;;;;;4997106;28;20246;-96
2022/02/12 11:13:58;;;;;;;4.87;1.43;;;4.30;99.90;;;;;;4996939;28;20263;-95
2022/02/12 11:16:25;;;;;;;7.80;1.90;;;4.40;99.90;;;;;;4982968;28;20183;-95
2022/02/12 11:18:52;;;;;;;7.10;2.00;;;4.40;99.90;;;;;;4998761;28;20184;-96
2022/02/12 11:21:18;;;;;;;8.97;1.90;;;4.40;99.90;;;;;;4997213;28;20653;-95
2022/02/12 11:24:14;;;;;;;11.40;2.43;;;4.40;99.90;;;;;;4996509;28;20733;-96
2022/02/12 11:26:40;;;;;;;12.53;2.43;;;4.20;99.90;;;;;;4978569;28;20232;-95
2022/02/12 11:29:42;;;;;;;7.33;1.70;;;4.30;99.90;;;;;;4996804;28;20643;-95
2022/02/12 11:32:09;;;;;;;9.17;1.67;;;4.30;99.90;;;;;;4941193;29;20339;-96
2022/02/12 11:34:35;;;;;;;12.27;2.53;;;4.40;99.90;;;;;;4990288;28;20219;-96
2022/02/12 11:37:19;;;;;;;11.40;2.40;;;4.40;99.90;;;;;;4997634;28;20206;-95
2022/02/12 11:40:13;;;;;;;11.57;2.73;;;4.50;99.90;;;;;;4987808;28;20187;-96
2022/02/12 11:42:44;;;;;;;8.07;2.57;;;4.60;99.90;;;;;;4989334;28;20192;-95
2022/02/12 11:45:19;;;;;;;9.97;3.07;;;4.70;99.90;;;;;;4985967;28;20194;-95
2022/02/12 11:48:07;;;;;;;10.00;2.93;;;4.60;99.90;;;;;;4984542;28;20256;-96
2022/02/12 11:50:47;;;;;;;9.93;2.30;;;4.60;99.90;;;;;;4996139;28;20595;-96
2022/02/12 11:54:01;;;;;;;6.70;2.00;;;4.70;99.90;;;;;;4996204;28;20215;-95
2022/02/12 11:56:26;;;;;;;7.57;1.93;;;4.90;99.90;;;;;;4981153;28;20171;-96
2022/02/12 11:58:54;;;;;;;8.93;2.17;;;5.00;99.90;;;;;;4996269;28;20311;-95
2022/02/12 12:01:26;;;;;;;7.37;2.13;;;5.10;99.90;;;;;;4996811;28;20291;-96
2022/02/12 12:04:22;;;;;;;7.07;1.90;;;5.00;99.90;;;;;;4997347;28;20251;-96
2022/02/12 12:07:04;;;;;;;8.90;1.83;;;5.00;99.90;;;;;;4998396;28;20187;-95
2022/02/12 12:09:58;;;;;;;7.60;1.93;;;4.90;99.90;;;;;;4995814;28;20188;-96
2022/02/12 12:12:24;;;;;;;9.90;2.03;;;5.00;99.90;;;;;;4989416;28;20203;-95
2022/02/12 12:15:12;;;;;;;8.87;1.97;;;5.00;99.90;;;;;;4987901;28;20388;-96
2022/02/12 12:17:38;;;;;;;8.67;1.93;;;4.90;99.90;;;;;;4985481;28;20195;-94
2022/02/12 12:20:05;;;;;;;11.30;2.10;;;5.00;99.90;;;;;;4990699;28;20180;-95
2022/02/12 12:22:31;;;;;;;10.00;1.80;;;4.90;99.90;;;;;;4997142;28;20180;-92
2022/02/12 12:25:00;;;;;;;12.40;2.13;;;4.90;99.90;;;;;;4997825;28;20310;-95
2022/02/12 12:27:25;;;;;;;18.07;2.60;;;4.90;99.90;;;;;;4995789;28;20176;-95
2022/02/12 12:32:35;;;;;;;11.83;2.47;;;4.90;99.90;;;;;;4997871;28;20215;-93
2022/02/12 12:35:03;;;;;;;7.20;1.60;;;5.00;99.90;;;;;;4996593;28;20183;-94
2022/02/12 12:37:32;;;;;;;5.80;1.50;;;5.10;99.90;;;;;;4997367;28;20191;-93
2022/02/12 12:40:00;;;;;;;4.63;1.50;;;5.10;99.90;;;;;;4998650;28;20299;-94
2022/02/12 12:42:27;;;;;;;6.83;1.97;;;5.20;99.90;;;;;;4994651;28;20211;-95
2022/02/12 12:45:03;;;;;;;7.40;1.50;;;5.30;99.90;;;;;;4997258;28;20211;-95
2022/02/12 12:47:30;;;;;;;6.30;1.30;;;5.30;99.90;;;;;;4996781;28;20653;-93
2022/02/12 12:50:01;;;;;;;8.10;1.40;;;5.40;99.90;;;;;;4998071;28;20215;-93
2022/02/12 12:52:31;;;;;;;7.00;1.60;;;5.50;99.90;;;;;;4998235;28;20270;-93
2022/02/12 12:55:12;;;;;;;5.60;1.57;;;5.60;99.90;;;;;;4999266;28;20176;-94
2022/02/12 12:57:43;;;;;;;6.37;1.53;;;5.60;99.90;;;;;;4999416;28;20271;-93
2022/02/12 13:00:21;;;;;;;9.53;2.03;;;5.60;99.90;;;;;;4998131;28;20212;-94
2022/02/12 13:02:52;;;;;;;6.90;1.53;;;5.50;99.90;;;;;;4982258;28;20251;-95
2022/02/12 13:05:29;;;;;;;9.50;1.90;;;5.40;99.90;;;;;;4999285;28;20527;-93
2022/02/12 13:08:06;;;;;;;5.97;1.53;;;5.30;99.90;;;;;;4998366;28;20175;-92
2022/02/12 13:10:34;;;;;;;5.87;1.80;;;5.30;99.90;;;;;;4999181;28;20516;-93
2022/02/12 13:13:11;;;;;;;8.13;1.43;;;5.40;99.90;;;;;;4992385;28;20242;-92
2022/02/12 13:15:39;;;;;;;7.43;1.40;;;5.40;99.90;;;;;;4986796;28;20583;-96